createdAt,value
2019-05-23T00:00:57.535Z,12.19
2019-05-23T00:01:57.511Z,12.20
2019-05-23T00:02:57.490Z,12.23
2019-05-23T00:03:57.471Z,12.16
2019-05-23T00:04:57.451Z,12.16
2019-05-23T00:05:57.430Z,12.13
2019-05-23T00:06:57.418Z,12.10
2019-05-23T00:07:57.407Z,12.12
2019-05-23T00:08:57.379Z,12.02
2019-05-23T00:09:57.351Z,11.76
2019-05-23T00:10:57.333Z,11.69
2019-05-23T00:11:57.310Z,11.69
2019-05-23T00:12:57.289Z,11.44
2019-05-23T00:13:57.268Z,11.40
2019-05-23T00:14:57.249Z,11.36
2019-05-23T00:15:57.229Z,11.24
2019-05-23T00:16:57.209Z,11.09
2019-05-23T00:17:57.188Z,11.04
2019-05-23T00:18:57.174Z,11.07
2019-05-23T00:19:57.150Z,11.11
2019-05-23T00:20:57.128Z,11.09
2019-05-23T00:21:57.108Z,11.11
2019-05-23T00:22:57.088Z,11.19
2019-05-23T00:23:57.067Z,11.28
2019-05-23T00:24:57.047Z,11.37
2019-05-23T00:25:57.027Z,11.36
2019-05-23T00:26:57.017Z,11.35
2019-05-23T00:27:56.987Z,11.42
2019-05-23T00:29:09.537Z,11.46
2019-05-23T00:29:56.948Z,11.39
2019-05-23T00:30:56.930Z,11.46
2019-05-23T00:31:56.905Z,11.43
2019-05-23T00:32:56.891Z,11.42
2019-05-23T00:33:56.871Z,11.37
2019-05-23T00:34:56.847Z,11.36
2019-05-23T00:35:56.827Z,11.46
2019-05-23T00:36:56.806Z,11.43
2019-05-23T00:37:56.784Z,11.40
2019-05-23T00:38:56.771Z,11.46
2019-05-23T00:39:56.747Z,11.29
2019-05-23T00:40:56.723Z,11.37
2019-05-23T00:41:56.709Z,11.18
2019-05-23T00:42:56.682Z,11.14
2019-05-23T00:43:56.662Z,11.10
2019-05-23T00:44:56.644Z,11.11
2019-05-23T00:45:56.625Z,11.07
2019-05-23T00:46:56.601Z,11.11
2019-05-23T00:47:56.579Z,11.11
2019-05-23T00:48:56.559Z,11.07
2019-05-23T00:49:56.560Z,11.15
2019-05-23T00:50:56.520Z,11.14
2019-05-23T00:51:56.503Z,11.14
2019-05-23T00:52:56.482Z,10.92
2019-05-23T00:53:56.459Z,10.85
2019-05-23T00:54:56.446Z,10.82
2019-05-23T00:55:56.424Z,10.85
2019-05-23T00:56:56.397Z,10.76
2019-05-23T00:57:56.385Z,10.71
2019-05-23T00:58:56.365Z,10.63
2019-05-23T00:59:56.343Z,10.67
2019-05-23T01:00:56.316Z,10.73
2019-05-23T01:01:56.295Z,10.64
2019-05-23T01:02:56.276Z,10.70
2019-05-23T01:03:56.253Z,10.66
2019-05-23T01:04:56.234Z,10.64
2019-05-23T01:05:56.212Z,10.41
2019-05-23T01:06:56.194Z,10.40
2019-05-23T01:07:56.175Z,10.26
2019-05-23T01:08:56.157Z,10.22
2019-05-23T01:09:56.132Z,10.20
2019-05-23T01:10:56.110Z,10.27
2019-05-23T01:11:56.089Z,10.27
2019-05-23T01:12:56.067Z,10.33
2019-05-23T01:13:56.046Z,10.42
2019-05-23T01:14:56.029Z,10.38
2019-05-23T01:15:56.005Z,10.52
2019-05-23T01:16:55.985Z,10.44
2019-05-23T01:17:55.963Z,10.52
2019-05-23T01:18:55.944Z,10.51
2019-05-23T01:19:55.924Z,10.48
2019-05-23T01:20:55.904Z,10.55
2019-05-23T01:21:55.884Z,10.36
2019-05-23T01:22:55.871Z,10.17
2019-05-23T01:23:55.845Z,9.97
2019-05-23T01:24:55.821Z,9.86
2019-05-23T01:25:55.807Z,9.71
2019-05-23T01:26:55.791Z,9.72
2019-05-23T01:27:55.758Z,9.76
2019-05-23T01:28:55.742Z,9.71
2019-05-23T01:29:55.715Z,9.75
2019-05-23T01:30:55.703Z,9.78
2019-05-23T01:31:55.677Z,9.81
2019-05-23T01:32:55.658Z,9.86
2019-05-23T01:33:55.636Z,9.99
2019-05-23T01:34:55.620Z,10.09
2019-05-23T01:35:55.595Z,10.15
2019-05-23T01:36:55.577Z,10.17
2019-05-23T01:37:55.558Z,10.23
2019-05-23T01:38:55.543Z,10.27
2019-05-23T01:39:55.521Z,10.42
2019-05-23T01:40:55.490Z,10.41
2019-05-23T01:41:55.470Z,10.48
2019-05-23T01:42:55.448Z,10.48
2019-05-23T01:43:55.426Z,10.41
2019-05-23T01:44:55.412Z,10.41
2019-05-23T01:45:55.384Z,10.48
2019-05-23T01:46:55.366Z,10.48
2019-05-23T01:47:55.344Z,10.38
2019-05-23T01:48:55.322Z,10.44
2019-05-23T01:49:55.306Z,10.40
2019-05-23T01:50:55.290Z,10.40
2019-05-23T01:51:55.260Z,10.42
2019-05-23T01:52:55.246Z,10.44
2019-05-23T01:53:55.218Z,10.38
2019-05-23T01:54:55.197Z,10.38
2019-05-23T01:55:55.180Z,10.26
2019-05-23T01:56:55.164Z,10.12
2019-05-23T01:57:55.134Z,9.96
2019-05-23T01:58:55.121Z,9.66
2019-05-23T02:00:08.917Z,9.64
2019-05-23T02:00:55.073Z,9.47
2019-05-23T02:01:55.055Z,9.35
2019-05-23T02:02:55.034Z,9.36
2019-05-23T02:03:55.021Z,9.35
2019-05-23T02:04:54.990Z,9.42
2019-05-23T02:05:54.971Z,9.48
2019-05-23T02:06:54.949Z,9.54
2019-05-23T02:07:54.927Z,9.56
2019-05-23T02:08:54.908Z,9.58
2019-05-23T02:09:54.886Z,9.53
2019-05-23T02:10:54.871Z,9.57
2019-05-23T02:11:54.850Z,9.51
2019-05-23T02:12:54.848Z,9.69
2019-05-23T02:13:54.800Z,9.69
2019-05-23T02:14:54.782Z,9.78
2019-05-23T02:15:54.758Z,9.79
2019-05-23T02:16:54.740Z,9.79
2019-05-23T02:17:54.726Z,9.93
2019-05-23T02:18:54.697Z,9.91
2019-05-23T02:19:54.679Z,9.91
2019-05-23T02:20:54.666Z,9.96
2019-05-23T02:21:54.638Z,10.02
2019-05-23T02:22:54.621Z,9.97
2019-05-23T02:23:54.616Z,9.89
2019-05-23T02:24:54.579Z,9.84
2019-05-23T02:25:54.583Z,9.81
2019-05-23T02:26:54.531Z,9.79
2019-05-23T02:27:54.510Z,9.81
2019-05-23T02:28:54.490Z,9.71
2019-05-23T02:29:54.473Z,9.76
2019-05-23T02:30:54.448Z,9.68
2019-05-23T02:31:54.426Z,9.71
2019-05-23T02:32:54.404Z,9.69
2019-05-23T02:33:54.392Z,9.71
2019-05-23T02:34:54.362Z,9.71
2019-05-23T02:35:54.343Z,9.72
2019-05-23T02:36:54.320Z,9.71
2019-05-23T02:37:54.302Z,9.69
2019-05-23T02:38:54.279Z,9.69
2019-05-23T02:39:54.263Z,9.75
2019-05-23T02:40:54.238Z,9.79
2019-05-23T02:41:54.216Z,9.72
2019-05-23T02:42:54.194Z,9.81
2019-05-23T02:43:54.175Z,9.72
2019-05-23T02:44:54.151Z,9.72
2019-05-23T02:45:54.130Z,9.78
2019-05-23T02:46:54.111Z,9.68
2019-05-23T02:47:54.087Z,9.61
2019-05-23T02:48:54.067Z,9.40
2019-05-23T02:49:54.049Z,9.35
2019-05-23T02:50:54.024Z,9.35
2019-05-23T02:51:54.004Z,9.29
2019-05-23T02:52:53.981Z,9.23
2019-05-23T02:53:54.012Z,9.15
2019-05-23T02:54:53.941Z,9.15
2019-05-23T02:55:53.918Z,9.11
2019-05-23T02:56:53.897Z,9.10
2019-05-23T02:57:53.877Z,9.11
2019-05-23T02:58:53.856Z,9.11
2019-05-23T02:59:53.836Z,9.17
2019-05-23T03:00:55.534Z,9.05
2019-05-23T03:01:53.792Z,9.11
2019-05-23T03:02:53.771Z,9.11
2019-05-23T03:03:53.751Z,9.08
2019-05-23T03:04:53.727Z,9.10
2019-05-23T03:05:53.706Z,9.08
2019-05-23T03:06:53.686Z,9.02
2019-05-23T03:07:53.676Z,8.87
2019-05-23T03:08:53.647Z,8.76
2019-05-23T03:09:53.620Z,8.76
2019-05-23T03:10:53.607Z,8.80
2019-05-23T03:11:53.583Z,8.80
2019-05-23T03:12:53.560Z,8.81
2019-05-23T03:13:53.537Z,8.76
2019-05-23T03:14:53.515Z,8.79
2019-05-23T03:15:53.497Z,8.76
2019-05-23T03:16:53.475Z,8.80
2019-05-23T03:17:53.454Z,8.86
2019-05-23T03:18:53.431Z,8.87
2019-05-23T03:19:53.414Z,8.91
2019-05-23T03:20:53.388Z,8.92
2019-05-23T03:21:53.374Z,8.95
2019-05-23T03:22:53.346Z,9.04
2019-05-23T03:23:53.326Z,8.99
2019-05-23T03:24:53.325Z,9.04
2019-05-23T03:25:53.290Z,9.05
2019-05-23T03:26:53.264Z,9.02
2019-05-23T03:27:53.240Z,9.13
2019-05-23T03:28:53.219Z,9.05
2019-05-23T03:29:53.198Z,9.13
2019-05-23T03:31:21.879Z,9.18
2019-05-23T03:31:53.156Z,9.17
2019-05-23T03:32:53.173Z,9.13
2019-05-23T03:33:53.112Z,9.15
2019-05-23T03:34:53.090Z,9.11
2019-05-23T03:35:53.137Z,9.10
2019-05-23T03:36:53.056Z,9.10
2019-05-23T03:37:53.025Z,9.11
2019-05-23T03:38:53.004Z,8.96
2019-05-23T03:39:52.990Z,8.99
2019-05-23T03:40:52.967Z,8.98
2019-05-23T03:41:52.943Z,8.87
2019-05-23T03:42:52.919Z,8.89
2019-05-23T03:43:52.907Z,8.76
2019-05-23T03:44:52.878Z,8.81
2019-05-23T03:45:52.865Z,8.68
2019-05-23T03:46:52.834Z,8.68
2019-05-23T03:47:52.813Z,8.65
2019-05-23T03:48:52.791Z,8.80
2019-05-23T03:49:52.771Z,8.80
2019-05-23T03:50:52.751Z,8.84
2019-05-23T03:51:52.729Z,8.79
2019-05-23T03:52:52.707Z,8.94
2019-05-23T03:53:52.687Z,8.81
2019-05-23T03:54:52.668Z,8.84
2019-05-23T03:55:52.640Z,8.81
2019-05-23T03:56:52.620Z,8.92
2019-05-23T03:57:52.600Z,8.81
2019-05-23T03:58:52.578Z,8.76
2019-05-23T03:59:52.561Z,8.81
2019-05-23T04:00:52.535Z,8.91
2019-05-23T04:01:52.512Z,8.89
2019-05-23T04:02:52.510Z,8.99
2019-05-23T04:03:52.475Z,9.08
2019-05-23T04:04:52.448Z,9.02
2019-05-23T04:05:52.428Z,8.99
2019-05-23T04:06:52.411Z,9.05
2019-05-23T04:07:52.393Z,9.02
2019-05-23T04:08:52.363Z,9.11
2019-05-23T04:09:52.342Z,8.95
2019-05-23T04:10:52.660Z,8.96
2019-05-23T04:11:52.300Z,8.91
2019-05-23T04:12:52.282Z,8.87
2019-05-23T04:13:52.256Z,8.92
2019-05-23T04:14:52.241Z,8.89
2019-05-23T04:15:52.220Z,8.96
2019-05-23T04:16:52.248Z,9.05
2019-05-23T04:17:52.174Z,9.17
2019-05-23T04:18:52.157Z,9.23
2019-05-23T04:19:52.129Z,9.24
2019-05-23T04:20:52.108Z,9.26
2019-05-23T04:21:52.091Z,9.40
2019-05-23T04:22:52.066Z,9.40
2019-05-23T04:23:52.044Z,9.46
2019-05-23T04:24:52.032Z,9.50
2019-05-23T04:25:52.058Z,9.53
2019-05-23T04:26:51.979Z,9.48
2019-05-23T04:27:51.957Z,9.48
2019-05-23T04:28:51.946Z,9.58
2019-05-23T04:29:51.921Z,9.57
2019-05-23T04:30:51.906Z,9.56
2019-05-23T04:32:07.100Z,9.75
2019-05-23T04:32:51.856Z,9.69
2019-05-23T04:33:51.830Z,9.87
2019-05-23T04:34:51.815Z,9.83
2019-05-23T04:35:51.786Z,9.89
2019-05-23T04:36:51.766Z,9.90
2019-05-23T04:37:51.743Z,9.99
2019-05-23T04:38:51.729Z,9.96
2019-05-23T04:39:51.706Z,10.04
2019-05-23T04:40:51.682Z,10.04
2019-05-23T04:41:51.658Z,10.09
2019-05-23T04:42:51.637Z,10.14
2019-05-23T04:43:51.619Z,10.23
2019-05-23T04:44:51.611Z,10.15
2019-05-23T04:45:51.575Z,10.26
2019-05-23T04:46:51.554Z,10.18
2019-05-23T04:47:51.534Z,10.25
2019-05-23T04:48:51.514Z,10.29
2019-05-23T04:49:51.488Z,10.26
2019-05-23T04:50:51.483Z,10.34
2019-05-23T04:51:51.447Z,10.29
2019-05-23T04:52:51.438Z,10.27
2019-05-23T04:53:51.403Z,10.41
2019-05-23T04:54:51.381Z,10.40
2019-05-23T04:55:51.362Z,10.42
2019-05-23T04:56:51.348Z,10.38
2019-05-23T04:57:51.323Z,10.38
2019-05-23T04:58:51.297Z,10.42
2019-05-23T04:59:51.287Z,10.38
2019-05-23T05:00:51.265Z,10.40
2019-05-23T05:01:51.243Z,10.40
2019-05-23T05:02:51.220Z,10.56
2019-05-23T05:03:51.192Z,10.59
2019-05-23T05:04:51.203Z,10.59
2019-05-23T05:05:51.171Z,10.61
2019-05-23T05:06:51.128Z,10.56
2019-05-23T05:07:51.110Z,10.67
2019-05-23T05:08:51.092Z,10.67
2019-05-23T05:09:51.129Z,10.64
2019-05-23T05:10:51.074Z,10.61
2019-05-23T05:11:51.022Z,10.76
2019-05-23T05:12:51.006Z,10.66
2019-05-23T05:13:50.982Z,10.67
2019-05-23T05:14:50.967Z,10.81
2019-05-23T05:15:50.966Z,10.71
2019-05-23T05:16:50.922Z,10.71
2019-05-23T05:17:50.901Z,10.86
2019-05-23T05:18:50.875Z,10.84
2019-05-23T05:19:50.854Z,10.81
2019-05-23T05:20:50.834Z,10.96
2019-05-23T05:21:50.810Z,10.94
2019-05-23T05:22:50.790Z,11.02
2019-05-23T05:23:50.770Z,11.07
2019-05-23T05:24:50.748Z,11.11
2019-05-23T05:25:50.734Z,11.10
2019-05-23T05:26:50.714Z,11.24
2019-05-23T05:27:50.699Z,11.25
2019-05-23T05:28:50.674Z,11.24
2019-05-23T05:29:50.643Z,11.28
2019-05-23T05:30:50.626Z,11.27
2019-05-23T05:31:50.603Z,11.37
2019-05-23T05:32:50.583Z,11.46
2019-05-23T05:33:50.559Z,11.51
2019-05-23T05:34:50.551Z,11.44
2019-05-23T05:35:50.517Z,11.52
2019-05-23T05:36:50.500Z,11.47
2019-05-23T05:37:50.480Z,11.52
2019-05-23T05:38:50.459Z,11.57
2019-05-23T05:39:50.443Z,11.57
2019-05-23T05:40:50.427Z,11.60
2019-05-23T05:41:50.405Z,11.75
2019-05-23T05:42:50.374Z,11.75
2019-05-23T05:43:50.350Z,11.76
2019-05-23T05:44:50.339Z,11.75
2019-05-23T05:45:50.313Z,11.82
2019-05-23T05:46:50.294Z,11.88
2019-05-23T05:47:50.269Z,11.88
2019-05-23T05:48:50.250Z,11.98
2019-05-23T05:49:50.225Z,11.90
2019-05-23T05:50:50.212Z,11.96
2019-05-23T05:51:50.185Z,12.01
2019-05-23T05:52:50.165Z,12.12
2019-05-23T05:53:50.155Z,12.13
2019-05-23T05:54:50.132Z,12.09
2019-05-23T05:55:50.102Z,12.21
2019-05-23T05:56:50.083Z,12.19
2019-05-23T05:57:50.066Z,12.21
2019-05-23T05:58:50.046Z,12.17
2019-05-23T05:59:50.020Z,12.21
2019-05-23T06:00:50.031Z,12.19
2019-05-23T06:01:49.978Z,12.23
2019-05-23T06:03:03.380Z,12.35
2019-05-23T06:03:49.944Z,12.38
2019-05-23T06:04:49.919Z,12.46
2019-05-23T06:05:49.901Z,12.38
2019-05-23T06:06:50.306Z,12.42
2019-05-23T06:07:49.858Z,12.52
2019-05-23T06:08:49.855Z,12.49
2019-05-23T06:09:49.815Z,12.56
2019-05-23T06:10:49.798Z,12.60
2019-05-23T06:11:49.778Z,12.82
2019-05-23T06:12:49.759Z,12.72
2019-05-23T06:13:49.738Z,12.71
2019-05-23T06:14:49.738Z,12.77
2019-05-23T06:15:49.715Z,12.74
2019-05-23T06:16:49.684Z,12.83
2019-05-23T06:17:49.666Z,12.79
2019-05-23T06:18:49.636Z,12.83
2019-05-23T06:19:49.613Z,12.86
2019-05-23T06:20:49.596Z,12.93
2019-05-23T06:21:49.573Z,12.97
2019-05-23T06:22:49.569Z,13.05
2019-05-23T06:23:49.534Z,13.10
2019-05-23T06:24:53.754Z,13.14
2019-05-23T06:25:49.494Z,13.14
2019-05-23T06:26:49.469Z,13.12
2019-05-23T06:27:49.448Z,13.17
2019-05-23T06:28:49.427Z,13.19
2019-05-23T06:29:49.407Z,13.23
2019-05-23T06:30:49.386Z,13.38
2019-05-23T06:31:49.371Z,13.44
2019-05-23T06:32:49.346Z,13.38
2019-05-23T06:33:49.378Z,13.39
2019-05-23T06:34:49.309Z,13.41
2019-05-23T06:35:49.286Z,13.45
2019-05-23T06:36:49.269Z,13.62
2019-05-23T06:37:49.249Z,13.63
2019-05-23T06:38:49.226Z,13.62
2019-05-23T06:39:49.433Z,13.63
2019-05-23T06:40:49.191Z,13.82
2019-05-23T06:41:49.167Z,13.84
2019-05-23T06:42:50.770Z,13.89
2019-05-23T06:43:49.133Z,13.91
2019-05-23T06:44:49.110Z,14.04
2019-05-23T06:45:49.094Z,14.04
2019-05-23T06:46:49.078Z,14.20
2019-05-23T06:47:49.059Z,14.14
2019-05-23T06:48:49.030Z,14.27
2019-05-23T06:49:49.010Z,14.33
2019-05-23T06:50:48.989Z,14.35
2019-05-23T06:51:48.966Z,14.35
2019-05-23T06:52:48.953Z,14.37
2019-05-23T06:53:48.924Z,14.40
2019-05-23T06:54:48.906Z,14.46
2019-05-23T06:55:48.886Z,14.57
2019-05-23T06:56:48.865Z,14.57
2019-05-23T06:57:48.845Z,14.55
2019-05-23T06:58:48.826Z,14.65
2019-05-23T06:59:48.805Z,14.69
2019-05-23T07:00:49.196Z,14.77
2019-05-23T07:01:48.764Z,14.80
2019-05-23T07:02:48.747Z,14.81
2019-05-23T07:03:48.729Z,14.89
2019-05-23T07:04:48.710Z,14.92
2019-05-23T07:05:48.702Z,14.88
2019-05-23T07:06:48.672Z,14.98
2019-05-23T07:07:48.660Z,15.06
2019-05-23T07:08:48.627Z,14.98
2019-05-23T07:09:48.614Z,15.11
2019-05-23T07:10:48.588Z,15.10
2019-05-23T07:11:48.569Z,15.23
2019-05-23T07:12:48.594Z,15.19
2019-05-23T07:13:48.527Z,15.27
2019-05-23T07:14:48.513Z,15.34
2019-05-23T07:15:48.491Z,15.38
2019-05-23T07:16:50.443Z,15.35
2019-05-23T07:17:48.448Z,15.51
2019-05-23T07:18:48.444Z,15.50
2019-05-23T07:19:48.422Z,15.54
2019-05-23T07:20:48.392Z,15.59
2019-05-23T07:21:48.385Z,15.59
2019-05-23T07:22:48.352Z,15.57
2019-05-23T07:23:48.334Z,15.68
2019-05-23T07:24:58.375Z,15.68
2019-05-23T07:25:48.298Z,15.71
2019-05-23T07:26:48.273Z,15.82
2019-05-23T07:27:48.254Z,15.92
2019-05-23T07:28:48.239Z,15.89
2019-05-23T07:29:48.220Z,15.87
2019-05-23T07:30:48.194Z,15.93
2019-05-23T07:31:48.176Z,16.05
2019-05-23T07:32:48.159Z,16.02
2019-05-23T07:34:01.071Z,16.05
2019-05-23T07:34:48.117Z,16.12
2019-05-23T07:35:48.106Z,16.21
2019-05-23T07:36:48.087Z,16.24
2019-05-23T07:37:48.064Z,16.41
2019-05-23T07:38:48.043Z,16.41
2019-05-23T07:39:48.021Z,16.45
2019-05-23T07:40:48.006Z,16.43
2019-05-23T07:41:47.982Z,16.49
2019-05-23T07:42:47.967Z,16.56
2019-05-23T07:43:47.946Z,16.60
2019-05-23T07:44:48.757Z,16.64
2019-05-23T07:45:47.906Z,16.71
2019-05-23T07:46:47.892Z,16.76
2019-05-23T07:47:47.869Z,16.81
2019-05-23T07:48:47.849Z,16.85
2019-05-23T07:49:47.839Z,16.91
2019-05-23T07:50:47.821Z,16.94
2019-05-23T07:51:47.794Z,16.97
2019-05-23T07:52:47.787Z,17.07
2019-05-23T07:53:47.801Z,17.15
2019-05-23T07:54:47.740Z,17.15
2019-05-23T07:55:47.722Z,17.22
2019-05-23T07:56:47.705Z,17.36
2019-05-23T07:57:47.680Z,17.34
2019-05-23T07:58:47.663Z,17.38
2019-05-23T07:59:47.643Z,17.34
2019-05-23T08:00:47.631Z,17.48
2019-05-23T08:01:47.605Z,17.51
2019-05-23T08:02:47.586Z,17.63
2019-05-23T08:03:47.571Z,17.64
2019-05-23T08:04:47.562Z,17.59
2019-05-23T08:05:47.533Z,17.43
2019-05-23T08:06:48.956Z,17.52
2019-05-23T08:07:47.525Z,17.63
2019-05-23T08:08:47.476Z,17.71
2019-05-23T08:09:47.480Z,17.79
2019-05-23T08:10:47.438Z,17.87
2019-05-23T08:11:47.427Z,17.95
2019-05-23T08:12:47.422Z,17.96
2019-05-23T08:13:47.389Z,18.00
2019-05-23T08:14:47.367Z,18.07
2019-05-23T08:15:47.355Z,18.11
2019-05-23T08:16:47.329Z,18.02
2019-05-23T08:17:47.316Z,18.15
2019-05-23T08:18:47.319Z,18.21
2019-05-23T08:19:50.190Z,18.12
2019-05-23T08:20:47.260Z,18.18
2019-05-23T08:21:47.241Z,18.26
2019-05-23T08:22:47.232Z,18.27
2019-05-23T08:23:47.217Z,18.30
2019-05-23T08:24:50.916Z,18.36
2019-05-23T08:25:47.179Z,18.51
2019-05-23T08:26:47.157Z,18.47
2019-05-23T08:27:47.143Z,18.57
2019-05-23T08:29:12.310Z,18.67
2019-05-23T08:29:47.095Z,18.67
2019-05-23T08:30:47.077Z,18.69
2019-05-23T08:31:47.064Z,18.62
2019-05-23T08:32:47.049Z,18.62
2019-05-23T08:33:47.029Z,18.58
2019-05-23T08:34:47.015Z,18.29
2019-05-23T08:35:46.992Z,18.18
2019-05-23T08:36:46.970Z,18.20
2019-05-23T08:37:46.953Z,18.21
2019-05-23T08:38:46.939Z,18.20
2019-05-23T08:39:46.920Z,18.30
2019-05-23T08:40:46.906Z,18.33
2019-05-23T08:41:46.887Z,18.45
2019-05-23T08:42:46.867Z,18.51
2019-05-23T08:43:46.853Z,18.63
2019-05-23T08:44:46.866Z,18.75
2019-05-23T08:45:46.813Z,18.78
2019-05-23T08:46:46.793Z,18.94
2019-05-23T08:47:46.782Z,19.02
2019-05-23T08:48:46.762Z,18.95
2019-05-23T08:49:46.743Z,18.95
2019-05-23T08:50:46.773Z,18.90
2019-05-23T08:51:46.709Z,18.66
2019-05-23T08:52:46.692Z,18.62
2019-05-23T08:53:46.674Z,18.58
2019-05-23T08:54:46.655Z,18.57
2019-05-23T08:55:46.637Z,18.75
2019-05-23T08:56:46.618Z,18.88
2019-05-23T08:57:46.609Z,19.06
2019-05-23T08:58:46.624Z,19.21
2019-05-23T08:59:46.569Z,19.31
2019-05-23T09:00:46.553Z,19.43
2019-05-23T09:01:46.531Z,19.26
2019-05-23T09:02:46.513Z,19.36
2019-05-23T09:03:46.501Z,19.36
2019-05-23T09:05:03.433Z,19.33
2019-05-23T09:05:46.471Z,19.28
2019-05-23T09:06:46.473Z,19.29
2019-05-23T09:07:46.430Z,19.32
2019-05-23T09:08:46.420Z,19.28
2019-05-23T09:09:46.393Z,19.31
2019-05-23T09:10:46.381Z,19.40
2019-05-23T09:11:46.362Z,19.40
2019-05-23T09:12:46.351Z,19.48
2019-05-23T09:13:46.327Z,19.59
2019-05-23T09:14:46.309Z,19.59
2019-05-23T09:15:46.292Z,19.68
2019-05-23T09:16:46.279Z,19.58
2019-05-23T09:17:53.207Z,19.37
2019-05-23T09:18:46.252Z,19.26
2019-05-23T09:19:46.224Z,19.32
2019-05-23T09:20:46.210Z,19.33
2019-05-23T09:21:46.198Z,19.43
2019-05-23T09:22:46.190Z,19.48
2019-05-23T09:23:46.178Z,19.44
2019-05-23T09:24:46.143Z,19.44
2019-05-23T09:25:46.129Z,19.46
2019-05-23T09:26:46.106Z,19.41
2019-05-23T09:27:46.110Z,19.39
2019-05-23T09:28:46.070Z,19.40
2019-05-23T09:29:46.051Z,19.41
2019-05-23T09:30:46.041Z,19.55
2019-05-23T09:31:46.030Z,19.51
2019-05-23T09:32:46.006Z,19.68
2019-05-23T09:33:45.983Z,19.71
2019-05-23T09:34:45.975Z,19.80
2019-05-23T09:35:45.953Z,19.81
2019-05-23T09:36:45.937Z,19.84
2019-05-23T09:37:45.928Z,19.77
2019-05-23T09:38:45.902Z,19.80
2019-05-23T09:39:45.884Z,19.92
2019-05-23T09:40:45.870Z,19.84
2019-05-23T09:41:45.856Z,19.96
2019-05-23T09:42:45.840Z,20.01
2019-05-23T09:43:45.818Z,20.13
2019-05-23T09:44:45.806Z,20.03
2019-05-23T09:45:45.787Z,20.18
2019-05-23T09:46:45.777Z,20.02
2019-05-23T09:47:50.463Z,20.03
2019-05-23T09:48:45.784Z,20.01
2019-05-23T09:49:53.518Z,20.10
2019-05-23T09:50:45.700Z,20.20
2019-05-23T09:51:47.084Z,20.16
2019-05-23T09:52:45.673Z,20.29
2019-05-23T09:53:47.493Z,20.32
2019-05-23T09:54:45.633Z,20.33
2019-05-23T09:55:45.617Z,20.39
2019-05-23T09:56:45.603Z,20.55
2019-05-23T09:57:45.581Z,20.47
2019-05-23T09:58:45.564Z,20.54
2019-05-23T09:59:45.550Z,20.57
2019-05-23T10:00:45.561Z,20.69
2019-05-23T10:01:45.578Z,20.66
2019-05-23T10:02:45.498Z,20.76
2019-05-23T10:03:45.490Z,20.69
2019-05-23T10:04:45.470Z,20.59
2019-05-23T10:05:45.449Z,20.59
2019-05-23T10:06:46.323Z,20.29
2019-05-23T10:07:45.416Z,20.13
2019-05-23T10:08:45.400Z,20.02
2019-05-23T10:09:45.381Z,19.92
2019-05-23T10:10:45.380Z,19.98
2019-05-23T10:11:45.349Z,20.16
2019-05-23T10:12:45.338Z,20.10
2019-05-23T10:13:45.320Z,20.24
2019-05-23T10:14:45.300Z,20.36
2019-05-23T10:15:45.306Z,20.43
2019-05-23T10:16:45.267Z,20.48
2019-05-23T10:17:45.251Z,20.62
2019-05-23T10:18:45.243Z,20.72
2019-05-23T10:19:45.217Z,20.72
2019-05-23T10:20:45.206Z,20.80
2019-05-23T10:21:45.186Z,20.79
2019-05-23T10:22:45.174Z,20.77
2019-05-23T10:23:45.156Z,20.76
2019-05-23T10:24:45.136Z,20.87
2019-05-23T10:25:45.120Z,20.79
2019-05-23T10:26:45.108Z,20.67
2019-05-23T10:27:45.102Z,20.64
2019-05-23T10:28:45.070Z,20.77
2019-05-23T10:29:45.053Z,20.64
2019-05-23T10:30:45.041Z,20.74
2019-05-23T10:31:45.021Z,20.72
2019-05-23T10:32:45.019Z,20.42
2019-05-23T10:33:44.989Z,20.47
2019-05-23T10:34:44.981Z,20.52
2019-05-23T10:35:59.093Z,20.59
2019-05-23T10:36:44.944Z,20.57
2019-05-23T10:37:44.932Z,20.64
2019-05-23T10:38:44.914Z,20.77
2019-05-23T10:39:44.893Z,20.73
2019-05-23T10:40:44.877Z,20.64
2019-05-23T10:41:44.858Z,20.85
2019-05-23T10:42:44.850Z,20.88
2019-05-23T10:43:44.828Z,20.99
2019-05-23T10:44:45.139Z,21.10
2019-05-23T10:45:44.804Z,21.10
2019-05-23T10:46:44.780Z,21.09
2019-05-23T10:47:44.779Z,21.17
2019-05-23T10:48:44.765Z,21.19
2019-05-23T10:49:44.730Z,21.22
2019-05-23T10:50:45.575Z,21.35
2019-05-23T10:51:44.701Z,21.35
2019-05-23T10:52:44.716Z,21.43
2019-05-23T10:53:44.670Z,21.46
2019-05-23T10:54:44.649Z,21.44
2019-05-23T10:55:44.639Z,21.42
2019-05-23T10:56:44.624Z,21.42
2019-05-23T10:57:44.604Z,21.14
2019-05-23T10:58:44.582Z,21.16
2019-05-23T10:59:44.569Z,21.13
2019-05-23T11:00:44.554Z,21.04
2019-05-23T11:01:44.551Z,20.99
2019-05-23T11:02:44.560Z,21.12
2019-05-23T11:03:44.525Z,21.16
2019-05-23T11:04:44.490Z,21.06
2019-05-23T11:05:44.476Z,21.13
2019-05-23T11:06:44.464Z,21.27
2019-05-23T11:07:44.527Z,21.32
2019-05-23T11:08:44.430Z,21.49
2019-05-23T11:09:44.416Z,21.54
2019-05-23T11:10:44.398Z,21.65
2019-05-23T11:11:44.381Z,21.74
2019-05-23T11:12:44.362Z,21.84
2019-05-23T11:13:44.388Z,21.98
2019-05-23T11:14:44.332Z,21.96
2019-05-23T11:15:44.317Z,21.99
2019-05-23T11:16:44.303Z,21.94
2019-05-23T11:17:44.289Z,21.88
2019-05-23T11:18:44.275Z,22.05
2019-05-23T11:19:44.262Z,21.82
2019-05-23T11:20:44.239Z,21.80
2019-05-23T11:21:44.234Z,21.96
2019-05-23T11:22:44.210Z,21.83
2019-05-23T11:23:44.188Z,21.82
2019-05-23T11:24:44.179Z,21.67
2019-05-23T11:25:44.247Z,21.64
2019-05-23T11:26:44.152Z,21.64
2019-05-23T11:27:44.290Z,21.67
2019-05-23T11:28:44.111Z,21.74
2019-05-23T11:29:44.105Z,21.75
2019-05-23T11:30:44.079Z,21.82
2019-05-23T11:31:44.070Z,21.71
2019-05-23T11:32:44.056Z,21.69
2019-05-23T11:33:44.053Z,21.56
2019-05-23T11:34:44.036Z,21.43
2019-05-23T11:35:44.022Z,21.24
2019-05-23T11:36:43.987Z,21.07
2019-05-23T11:37:43.973Z,21.19
2019-05-23T11:38:43.965Z,21.28
2019-05-23T11:39:49.490Z,21.24
2019-05-23T11:40:43.924Z,21.34
2019-05-23T11:41:43.908Z,21.32
2019-05-23T11:42:43.897Z,21.43
2019-05-23T11:43:43.887Z,21.58
2019-05-23T11:44:43.863Z,21.72
2019-05-23T11:45:46.196Z,21.94
2019-05-23T11:46:43.829Z,21.98
2019-05-23T11:47:43.814Z,22.03
2019-05-23T11:48:43.831Z,22.06
2019-05-23T11:49:44.763Z,22.09
2019-05-23T11:50:43.772Z,22.06
2019-05-23T11:51:43.758Z,22.03
2019-05-23T11:52:43.745Z,21.98
2019-05-23T11:53:47.052Z,21.96
2019-05-23T11:54:43.718Z,22.02
2019-05-23T11:55:43.701Z,21.86
2019-05-23T11:56:43.678Z,22.02
2019-05-23T11:57:43.661Z,22.05
2019-05-23T11:58:43.689Z,22.12
2019-05-23T11:59:43.634Z,22.10
2019-05-23T12:00:43.685Z,22.14
2019-05-23T12:01:43.602Z,22.17
2019-05-23T12:02:43.626Z,22.20
2019-05-23T12:03:43.570Z,22.25
2019-05-23T12:04:43.555Z,22.25
2019-05-23T12:05:43.537Z,22.30
2019-05-23T12:06:54.273Z,22.33
2019-05-23T12:07:43.507Z,22.47
2019-05-23T12:08:43.488Z,22.39
2019-05-23T12:09:43.473Z,22.39
2019-05-23T12:10:43.457Z,22.25
2019-05-23T12:11:43.612Z,22.27
2019-05-23T12:12:43.431Z,22.27
2019-05-23T12:13:43.417Z,22.21
2019-05-23T12:14:43.406Z,22.06
2019-05-23T12:15:43.380Z,22.00
2019-05-23T12:16:43.367Z,21.99
2019-05-23T12:17:43.349Z,21.96
2019-05-23T12:18:43.336Z,21.99
2019-05-23T12:19:43.317Z,21.94
2019-05-23T12:20:43.308Z,21.98
2019-05-23T12:21:43.300Z,22.02
2019-05-23T12:22:43.386Z,21.99
2019-05-23T12:23:43.256Z,22.15
2019-05-23T12:24:43.242Z,22.27
2019-05-23T12:25:43.224Z,22.25
2019-05-23T12:26:43.243Z,22.40
2019-05-23T12:27:43.226Z,22.42
2019-05-23T12:28:43.185Z,22.35
2019-05-23T12:29:43.211Z,22.27
2019-05-23T12:30:43.148Z,22.22
2019-05-23T12:31:43.152Z,22.21
2019-05-23T12:32:43.136Z,22.35
2019-05-23T12:33:43.108Z,22.47
2019-05-23T12:34:43.096Z,22.70
2019-05-23T12:35:43.073Z,22.75
2019-05-23T12:36:43.074Z,22.76
2019-05-23T12:37:43.049Z,22.67
2019-05-23T12:38:43.040Z,22.57
2019-05-23T12:39:43.016Z,22.39
2019-05-23T12:40:43.019Z,22.22
2019-05-23T12:41:42.980Z,22.31
2019-05-23T12:42:42.966Z,22.24
2019-05-23T12:43:42.957Z,22.20
2019-05-23T12:44:42.948Z,22.07
2019-05-23T12:45:42.922Z,22.00
2019-05-23T12:46:42.906Z,22.06
2019-05-23T12:47:42.890Z,22.22
2019-05-23T12:48:42.873Z,22.28
2019-05-23T12:49:42.875Z,22.52
2019-05-23T12:50:42.853Z,22.60
2019-05-23T12:51:42.836Z,22.62
2019-05-23T12:52:42.820Z,22.73
2019-05-23T12:53:42.800Z,22.77
2019-05-23T12:54:42.783Z,22.65
2019-05-23T12:55:42.768Z,22.47
2019-05-23T12:56:42.751Z,22.37
2019-05-23T12:57:42.747Z,22.52
2019-05-23T12:58:42.723Z,22.61